Time;durP1;ratioP1;P1;durP2;ratioP2;P2;SDS_P1;SDS_P2;PMS_P1;PMS_P2;Temp;Humidity;BMP_temperature;BMP_pressure;BME280_temperature;BME280_humidity;BME280_pressure;Samples;Min_cycle;Max_cycle;Signal;HPM_P1;HPM_P2
2022/11/11 00:01:46;;;;;;;9.23;5.30;;;8.70;99.90;;;;;;7349592;32;20237;-59
2022/11/11 00:05:48;;;;;;;9.85;5.70;;;8.70;99.90;;;;;;7350771;32;20107;-59
2022/11/11 00:09:50;;;;;;;10.15;5.32;;;8.70;99.90;;;;;;7351046;32;20163;-59
2022/11/11 00:13:53;;;;;;;11.27;5.87;;;8.70;99.90;;;;;;7348167;32;20130;-59
2022/11/11 00:26:42;;;;;;;11.12;5.22;;;8.60;99.90;;;;;;7345159;32;20175;-59
2022/11/11 00:30:44;;;;;;;11.52;5.15;;;8.50;99.90;;;;;;7352282;32;20191;-59
2022/11/11 00:35:52;;;;;;;13.73;5.97;;;8.40;99.90;;;;;;7351940;32;20129;-58
2022/11/11 00:39:07;;;;;;;10.82;5.85;;;8.40;99.90;;;;;;7353792;32;21330;-58
2022/11/11 00:43:09;;;;;;;15.18;6.40;;;8.40;99.90;;;;;;7353061;32;20110;-58
2022/11/11 00:51:31;;;;;;;14.48;6.05;;;8.30;99.90;;;;;;7350009;32;20186;-59
2022/11/11 00:55:33;;;;;;;12.60;6.30;;;8.40;99.90;;;;;;7352127;32;20121;-59
2022/11/11 00:59:34;;;;;;;11.82;5.68;;;8.40;99.90;;;;;;7344197;32;20103;-59
2022/11/11 01:03:36;;;;;;;11.73;5.90;;;8.30;99.90;;;;;;7346955;32;20115;-59
2022/11/11 01:07:38;;;;;;;13.60;6.10;;;8.30;99.90;;;;;;7345534;32;20254;-59
2022/11/11 01:11:40;;;;;;;14.68;6.30;;;8.40;99.90;;;;;;7349753;32;20102;-58
2022/11/11 01:15:44;;;;;;;12.32;6.03;;;8.50;99.90;;;;;;7341764;32;20527;-59
2022/11/11 01:19:46;;;;;;;10.88;5.72;;;8.40;99.90;;;;;;7349795;32;20240;-58
2022/11/11 01:23:48;;;;;;;11.52;5.95;;;8.30;99.90;;;;;;7353232;32;20581;-59
2022/11/11 01:27:50;;;;;;;11.57;6.87;;;8.40;99.90;;;;;;7348074;32;20475;-58
2022/11/11 01:31:52;;;;;;;11.68;6.12;;;8.40;99.90;;;;;;7350426;32;20539;-58
2022/11/11 01:35:54;;;;;;;12.98;6.07;;;8.30;99.90;;;;;;7354330;32;20201;-58
2022/11/11 01:39:55;;;;;;;12.65;6.75;;;8.30;99.90;;;;;;7348686;32;20258;-59
2022/11/11 01:44:18;;;;;;;13.35;6.53;;;8.30;99.90;;;;;;7345427;32;20418;-58
2022/11/11 01:52:50;;;;;;;15.57;6.55;;;8.30;99.90;;;;;;7353841;32;20104;-59
2022/11/11 01:56:58;;;;;;;11.95;5.93;;;8.20;99.90;;;;;;7349406;32;20513;-58
2022/11/11 02:01:01;;;;;;;13.85;6.37;;;8.20;99.90;;;;;;7352199;32;20103;-58
2022/11/11 02:09:27;;;;;;;14.38;6.62;;;8.20;99.90;;;;;;7346641;32;20823;-58
2022/11/11 02:17:49;;;;;;;12.77;6.62;;;8.10;99.90;;;;;;7345770;32;20137;-58
2022/11/11 02:21:58;;;;;;;13.48;7.15;;;8.10;99.90;;;;;;7348355;32;20237;-60
2022/11/11 02:26:03;;;;;;;14.07;7.43;;;8.10;99.90;;;;;;7346219;32;20115;-59
2022/11/11 02:30:06;;;;;;;13.05;6.97;;;8.10;99.90;;;;;;7350342;32;20118;-59
2022/11/11 02:34:08;;;;;;;12.80;5.87;;;8.20;99.90;;;;;;7354941;32;20220;-59
2022/11/11 02:38:10;;;;;;;14.90;7.07;;;8.10;99.90;;;;;;7359297;32;20111;-59
2022/11/11 02:42:15;;;;;;;15.68;7.30;;;8.10;99.90;;;;;;7346656;32;20186;-60
2022/11/11 02:46:17;;;;;;;15.85;6.60;;;8.00;99.90;;;;;;7352234;32;20162;-58
2022/11/11 02:50:18;;;;;;;9.73;6.00;;;8.00;99.90;;;;;;7345957;32;20204;-58
2022/11/11 02:54:20;;;;;;;12.55;5.87;;;8.00;99.90;;;;;;7355588;32;20103;-59
2022/11/11 02:58:22;;;;;;;9.52;7.03;;;7.90;99.90;;;;;;7352113;32;20133;-59
2022/11/11 03:02:27;;;;;;;12.30;6.68;;;7.80;99.90;;;;;;7356167;32;20103;-60
2022/11/11 03:06:29;;;;;;;13.05;6.80;;;7.90;99.90;;;;;;7346105;32;20149;-59
2022/11/11 03:10:31;;;;;;;9.52;6.22;;;8.00;99.90;;;;;;7350060;32;20628;-60
2022/11/11 03:14:33;;;;;;;6.82;5.20;;;8.00;99.90;;;;;;7349048;32;20791;-59
2022/11/11 03:18:35;;;;;;;12.20;6.37;;;7.80;99.90;;;;;;7352880;32;20107;-59
2022/11/11 03:22:37;;;;;;;13.98;5.87;;;7.70;99.90;;;;;;7351855;32;20103;-59
2022/11/11 03:26:55;;;;;;;12.35;5.82;;;7.70;99.90;;;;;;7352243;32;20178;-60
2022/11/11 03:30:58;;;;;;;14.55;6.68;;;7.90;99.90;;;;;;7345585;32;20104;-58
2022/11/11 03:35:05;;;;;;;10.23;6.00;;;7.90;99.90;;;;;;7350176;32;20127;-59
2022/11/11 03:39:06;;;;;;;12.40;6.47;;;8.00;99.90;;;;;;7351852;32;20128;-58
2022/11/11 03:43:08;;;;;;;9.98;6.05;;;8.00;99.90;;;;;;7352888;32;20092;-58
2022/11/11 03:47:10;;;;;;;10.35;6.32;;;7.90;99.90;;;;;;7347068;32;20237;-60
2022/11/11 03:51:12;;;;;;;8.40;5.72;;;7.80;99.90;;;;;;7354150;32;20226;-59
2022/11/11 03:55:14;;;;;;;13.60;6.30;;;7.70;99.90;;;;;;7347798;32;20095;-58
2022/11/11 03:59:15;;;;;;;11.60;6.45;;;7.60;99.90;;;;;;7353831;32;20129;-58
2022/11/11 04:11:59;;;;;;;9.95;6.32;;;7.60;99.90;;;;;;7350185;32;20519;-59
2022/11/11 04:16:07;;;;;;;10.52;6.07;;;7.70;99.90;;;;;;7352072;32;20240;-60
2022/11/11 04:33:11;;;;;;;11.38;6.28;;;7.50;99.90;;;;;;7350970;32;20141;-58
2022/11/11 04:37:14;;;;;;;9.35;5.87;;;7.50;99.90;;;;;;7352516;32;20111;-60
2022/11/11 04:41:15;;;;;;;14.07;6.43;;;7.40;99.90;;;;;;7343143;32;20218;-58
2022/11/11 04:45:34;;;;;;;15.35;5.93;;;7.40;99.90;;;;;;7344275;32;20107;-58
2022/11/11 04:49:36;;;;;;;10.32;6.28;;;7.40;99.90;;;;;;7346804;32;20285;-59
2022/11/11 04:53:38;;;;;;;11.63;5.87;;;7.40;99.90;;;;;;7345790;32;20230;-58
2022/11/11 04:57:47;;;;;;;12.93;5.53;;;7.30;99.90;;;;;;7356724;32;20201;-58
2022/11/11 05:10:29;;;;;;;9.60;5.57;;;7.40;99.90;;;;;;7351353;32;20570;-58
2022/11/11 05:23:12;;;;;;;10.70;5.22;;;7.60;99.90;;;;;;7352438;32;20160;-59
2022/11/11 05:27:14;;;;;;;8.60;5.68;;;7.60;99.90;;;;;;7351917;32;20104;-58
2022/11/11 05:31:16;;;;;;;10.18;5.28;;;7.60;99.90;;;;;;7349039;32;20111;-58
2022/11/11 05:35:17;;;;;;;13.77;5.78;;;7.60;99.90;;;;;;7353863;32;20138;-58
2022/11/11 05:39:19;;;;;;;10.40;5.30;;;7.60;99.90;;;;;;7346385;32;20512;-58
2022/11/11 05:43:21;;;;;;;11.65;5.87;;;7.60;99.90;;;;;;7349897;32;20108;-58
2022/11/11 05:47:23;;;;;;;8.90;5.20;;;7.60;99.90;;;;;;7345599;32;20452;-58
2022/11/11 05:51:26;;;;;;;8.57;5.95;;;7.70;99.90;;;;;;7351242;32;20110;-58
2022/11/11 05:55:29;;;;;;;12.68;5.70;;;7.70;99.90;;;;;;7349437;32;20483;-58
2022/11/11 05:59:30;;;;;;;13.77;6.22;;;7.60;99.90;;;;;;7343885;32;20573;-59
2022/11/11 06:03:32;;;;;;;10.18;6.10;;;7.70;99.90;;;;;;7353402;32;20764;-59
2022/11/11 06:07:38;;;;;;;9.88;5.87;;;7.60;99.90;;;;;;7342483;32;20297;-57
2022/11/11 06:11:40;;;;;;;10.20;5.18;;;7.70;99.90;;;;;;7350832;32;20104;-58
2022/11/11 06:15:42;;;;;;;11.95;5.68;;;7.60;99.90;;;;;;7354074;32;20891;-59
2022/11/11 06:19:43;;;;;;;8.43;4.87;;;7.60;99.90;;;;;;7358180;32;20512;-57
2022/11/11 06:23:45;;;;;;;10.18;5.30;;;7.60;99.90;;;;;;7353425;32;20111;-58
2022/11/11 06:27:47;;;;;;;9.93;5.62;;;7.50;99.90;;;;;;7347422;32;21358;-57
2022/11/11 06:31:48;;;;;;;10.60;5.15;;;7.60;99.90;;;;;;7355123;32;20119;-58
2022/11/11 06:35:50;;;;;;;10.73;5.68;;;7.60;99.90;;;;;;7355243;32;20503;-59
2022/11/11 06:39:52;;;;;;;8.15;5.35;;;7.50;99.90;;;;;;7347308;32;20142;-58
2022/11/11 06:43:54;;;;;;;12.45;5.75;;;7.60;99.90;;;;;;7346069;32;20452;-58
2022/11/11 06:47:56;;;;;;;12.85;5.65;;;7.60;99.90;;;;;;7348956;32;20182;-61
2022/11/11 06:51:57;;;;;;;10.25;5.45;;;7.60;99.90;;;;;;7353837;32;20142;-62
2022/11/11 06:55:59;;;;;;;11.63;5.87;;;7.60;99.90;;;;;;7353134;32;20127;-61
2022/11/11 07:00:01;;;;;;;10.57;6.28;;;7.60;99.90;;;;;;7348049;32;20236;-64
2022/11/11 07:04:02;;;;;;;10.52;5.68;;;7.50;99.90;;;;;;7346249;32;20131;-63
2022/11/11 07:08:07;;;;;;;10.70;5.35;;;7.50;99.90;;;;;;7350927;32;20112;-63
2022/11/11 07:12:09;;;;;;;11.95;6.10;;;7.50;99.90;;;;;;7355812;32;20144;-63
2022/11/11 07:16:11;;;;;;;10.15;5.85;;;7.60;99.90;;;;;;7345768;32;20688;-62
2022/11/11 07:20:13;;;;;;;9.25;5.25;;;7.70;99.90;;;;;;7353279;32;20241;-61
2022/11/11 07:24:14;;;;;;;9.88;5.35;;;7.80;99.90;;;;;;7354068;32;20613;-61
2022/11/11 07:28:16;;;;;;;12.90;5.65;;;7.80;99.90;;;;;;7357247;32;20340;-63
2022/11/11 07:32:18;;;;;;;9.57;5.30;;;7.80;99.90;;;;;;7355111;32;20463;-62
2022/11/11 07:36:19;;;;;;;10.93;5.35;;;7.90;99.90;;;;;;7346529;32;20158;-64
2022/11/11 07:40:21;;;;;;;10.93;5.62;;;7.90;99.90;;;;;;7352574;32;20518;-63
2022/11/11 07:44:23;;;;;;;12.20;5.50;;;8.00;99.90;;;;;;7352816;32;20578;-62
2022/11/11 07:48:24;;;;;;;9.13;5.25;;;8.10;99.90;;;;;;7346824;32;20121;-61
2022/11/11 07:52:26;;;;;;;9.23;5.22;;;8.10;99.90;;;;;;7349156;32;20527;-60
2022/11/11 07:56:28;;;;;;;9.75;4.82;;;8.30;99.90;;;;;;7349139;32;20571;-64
2022/11/11 08:00:30;;;;;;;7.32;4.90;;;8.50;99.90;;;;;;7352466;32;20095;-61
2022/11/11 08:04:31;;;;;;;8.38;5.28;;;8.50;99.90;;;;;;7351375;32;20107;-61
2022/11/11 08:08:33;;;;;;;7.93;4.65;;;8.60;99.90;;;;;;7351052;32;20245;-61
2022/11/11 08:16:55;;;;;;;8.48;4.40;;;8.80;99.90;;;;;;7348561;32;20738;-62
2022/11/11 08:20:57;;;;;;;5.75;4.22;;;8.80;99.90;;;;;;7350423;32;20671;-61
2022/11/11 08:24:59;;;;;;;9.68;4.50;;;9.00;99.90;;;;;;7349209;32;20127;-61
2022/11/11 08:29:05;;;;;;;8.80;4.47;;;9.10;99.90;;;;;;7349028;32;20624;-62
2022/11/11 08:33:08;;;;;;;11.50;4.30;;;9.30;99.90;;;;;;7346036;32;20237;-62
2022/11/11 08:37:29;;;;;;;10.68;4.15;;;9.30;99.90;;;;;;7350338;32;20156;-61
2022/11/11 08:41:31;;;;;;;9.45;4.90;;;9.40;99.90;;;;;;7352064;32;20213;-61
2022/11/11 08:45:33;;;;;;;9.57;4.75;;;9.60;99.90;;;;;;7342123;32;20145;-63
2022/11/11 08:49:34;;;;;;;8.30;3.75;;;9.50;99.90;;;;;;7333518;32;20095;-63
2022/11/11 08:53:36;;;;;;;9.32;3.83;;;9.60;99.90;;;;;;7345739;32;20289;-63
2022/11/11 08:57:38;;;;;;;6.72;3.87;;;9.70;99.90;;;;;;7353077;32;20106;-64
2022/11/11 09:01:40;;;;;;;7.85;4.30;;;9.90;99.90;;;;;;7342248;32;20221;-63
2022/11/11 09:05:43;;;;;;;8.27;4.10;;;10.00;99.90;;;;;;7347092;32;20143;-63
2022/11/11 09:09:44;;;;;;;7.75;3.70;;;10.00;99.90;;;;;;7346765;32;20133;-61
2022/11/11 09:13:46;;;;;;;6.40;3.80;;;10.00;99.90;;;;;;7340879;32;20106;-61
2022/11/11 09:17:48;;;;;;;7.15;3.90;;;10.10;99.90;;;;;;7330501;32;20111;-59
2022/11/11 09:21:51;;;;;;;7.55;3.90;;;10.30;99.90;;;;;;7331813;32;20138;-61
2022/11/11 09:25:53;;;;;;;7.22;3.50;;;10.30;99.90;;;;;;7346609;32;20111;-62
2022/11/11 09:29:55;;;;;;;4.97;3.28;;;10.40;99.90;;;;;;7339951;32;20111;-61
2022/11/11 09:33:56;;;;;;;10.60;3.87;;;10.50;99.90;;;;;;7345766;32;20107;-63
2022/11/11 09:37:59;;;;;;;6.60;3.20;;;10.60;99.90;;;;;;7347590;32;20137;-60
2022/11/11 09:42:13;;;;;;;6.28;3.65;;;10.70;99.90;;;;;;7347628;32;20717;-61
2022/11/11 09:46:36;;;;;;;6.37;3.20;;;10.80;99.90;;;;;;7339310;32;20208;-61
2022/11/11 09:50:40;;;;;;;8.63;3.55;;;10.90;99.90;;;;;;7349854;32;20221;-62
2022/11/11 09:54:54;;;;;;;5.37;3.35;;;10.90;99.90;;;;;;7350496;32;20139;-63
2022/11/11 09:59:03;;;;;;;5.87;3.70;;;11.00;99.90;;;;;;7348932;32;20139;-62
2022/11/11 10:03:21;;;;;;;5.28;3.12;;;11.10;99.90;;;;;;7347900;32;20406;-61
2022/11/11 10:07:46;;;;;;;7.00;3.20;;;11.10;99.90;;;;;;7345675;32;20483;-60
2022/11/11 10:12:09;;;;;;;6.47;4.07;;;11.30;99.90;;;;;;7344426;32;20175;-60
2022/11/11 10:16:35;;;;;;;8.93;3.50;;;11.30;99.90;;;;;;7342278;32;20194;-64
2022/11/11 10:20:41;;;;;;;5.45;3.62;;;11.40;99.90;;;;;;7347758;32;20125;-61
2022/11/11 10:24:52;;;;;;;5.60;3.07;;;11.50;99.90;;;;;;7350784;32;20176;-60
2022/11/11 10:28:54;;;;;;;4.53;2.87;;;11.60;99.90;;;;;;7348951;32;20183;-64
2022/11/11 10:33:09;;;;;;;7.55;2.92;;;11.60;99.90;;;;;;7352475;32;20108;-61
2022/11/11 10:37:21;;;;;;;7.90;3.00;;;11.60;99.90;;;;;;7353993;32;20134;-60
2022/11/11 10:41:33;;;;;;;5.68;2.62;;;11.80;99.90;;;;;;7353122;32;20750;-62
2022/11/11 10:45:48;;;;;;;4.93;2.33;;;11.90;99.90;;;;;;7351726;32;20187;-62
2022/11/11 10:50:13;;;;;;;6.25;2.70;;;12.00;99.90;;;;;;7356545;32;20141;-60
2022/11/11 10:54:20;;;;;;;7.07;2.87;;;12.30;99.90;;;;;;7356904;32;20122;-60
2022/11/11 10:58:57;;;;;;;;;;;12.20;99.90;;;;;;7357111;32;20115;-61
2022/11/11 11:03:24;;;;;;;4.72;2.08;;;12.30;99.90;;;;;;7336661;32;20006;-60
2022/11/11 11:07:45;;;;;;;6.90;2.37;;;12.40;99.90;;;;;;7358838;32;20103;-60
2022/11/11 11:11:57;;;;;;;5.97;2.72;;;12.50;99.90;;;;;;7358526;32;20119;-60
2022/11/11 11:16:05;;;;;;;5.70;2.33;;;12.60;99.90;;;;;;7361373;32;20112;-60
2022/11/11 11:20:11;;;;;;;4.10;2.00;;;12.60;99.90;;;;;;7345324;32;20626;-60
2022/11/11 11:24:19;;;;;;;6.65;2.20;;;12.60;99.90;;;;;;7350709;32;20810;-62
2022/11/11 11:28:21;;;;;;;3.15;1.87;;;12.70;99.90;;;;;;7348611;32;20232;-63
2022/11/11 11:32:27;;;;;;;3.50;2.20;;;12.70;99.90;;;;;;7342411;32;20251;-61
2022/11/11 11:36:29;;;;;;;7.55;2.22;;;12.60;99.90;;;;;;7352176;32;20107;-61
2022/11/11 11:40:49;;;;;;;7.22;2.30;;;12.50;99.90;;;;;;7351943;32;20783;-61
2022/11/11 11:44:51;;;;;;;4.47;2.00;;;12.70;99.90;;;;;;7345594;32;20202;-61
2022/11/11 11:49:04;;;;;;;4.75;2.17;;;12.70;99.90;;;;;;7350879;32;20222;-63
2022/11/11 11:53:30;;;;;;;4.25;2.00;;;12.80;99.90;;;;;;7344604;32;20601;-61
2022/11/11 11:57:44;;;;;;;3.62;1.90;;;12.70;99.90;;;;;;7351137;32;20580;-61
2022/11/11 12:02:19;;;;;;;5.62;2.10;;;12.90;99.90;;;;;;7352273;32;20131;-63
2022/11/11 12:06:42;;;;;;;4.37;1.70;;;12.90;99.90;;;;;;7353083;32;20206;-61
2022/11/11 12:11:11;;;;;;;4.78;1.90;;;12.90;99.90;;;;;;7340738;32;20175;-60
2022/11/11 12:15:18;;;;;;;6.12;2.33;;;12.90;99.90;;;;;;7339872;32;20119;-60
2022/11/11 12:19:28;;;;;;;4.40;1.50;;;12.90;99.90;;;;;;7353448;32;20179;-62
2022/11/11 12:23:58;;;;;;;5.35;1.92;;;12.90;99.90;;;;;;7351636;32;20122;-62
2022/11/11 12:28:19;;;;;;;8.07;1.87;;;12.90;99.90;;;;;;7339884;32;20140;-60
2022/11/11 12:32:40;;;;;;;7.03;1.92;;;12.90;99.90;;;;;;7346269;32;20237;-61
2022/11/11 12:37:04;;;;;;;4.72;1.98;;;13.00;99.90;;;;;;7354094;32;20134;-61
2022/11/11 12:41:15;;;;;;;4.20;1.90;;;13.00;99.90;;;;;;7348252;32;20514;-61
2022/11/11 12:45:22;;;;;;;5.10;1.65;;;13.00;99.90;;;;;;7342640;32;20107;-60
2022/11/11 12:49:39;;;;;;;4.40;1.30;;;13.00;99.90;;;;;;7342067;32;20496;-60
2022/11/11 12:54:22;;;;;;;2.93;1.70;;;13.00;99.90;;;;;;7348484;32;20134;-63
2022/11/11 12:58:50;;;;;;;4.65;1.80;;;12.90;99.90;;;;;;7348438;32;20332;-61
2022/11/11 13:03:32;;;;;;;7.25;1.90;;;12.90;99.90;;;;;;7350699;32;20665;-60
2022/11/11 13:08:02;;;;;;;4.68;1.50;;;13.10;99.90;;;;;;7345848;32;20217;-60
2022/11/11 13:12:13;;;;;;;3.45;1.73;;;13.10;99.90;;;;;;7346445;32;20511;-63
2022/11/11 13:16:23;;;;;;;4.18;1.42;;;13.10;99.90;;;;;;7342693;32;20112;-62
2022/11/11 13:20:56;;;;;;;4.32;1.73;;;13.10;99.90;;;;;;7348339;32;20190;-63
2022/11/11 13:25:03;;;;;;;3.45;1.50;;;13.40;99.90;;;;;;7347197;32;20099;-61
2022/11/11 13:29:45;;;;;;;4.30;1.65;;;13.60;99.90;;;;;;7347600;32;20129;-61
2022/11/11 13:33:49;;;;;;;4.75;1.37;;;14.00;99.90;;;;;;7348511;32;20115;-60
2022/11/11 13:37:51;;;;;;;5.87;1.75;;;14.20;99.90;;;;;;7342321;32;20797;-62
2022/11/11 13:41:56;;;;;;;2.83;1.58;;;14.40;99.90;;;;;;7340212;32;20127;-61
2022/11/11 13:46:00;;;;;;;4.40;1.50;;;14.70;99.90;;;;;;7348103;32;20223;-60
2022/11/11 13:50:12;;;;;;;5.03;1.50;;;15.00;99.90;;;;;;7348536;32;20224;-60
2022/11/11 13:54:31;;;;;;;3.62;1.37;;;15.20;99.90;;;;;;7352122;32;20126;-61
2022/11/11 13:58:39;;;;;;;2.95;1.52;;;15.40;99.90;;;;;;7340025;32;20209;-58
2022/11/11 14:02:40;;;;;;;2.50;1.08;;;15.60;99.90;;;;;;7349685;32;20194;-60
2022/11/11 14:06:51;;;;;;;2.90;1.40;;;15.60;99.90;;;;;;7347025;32;20392;-59
2022/11/11 14:10:58;;;;;;;4.35;1.55;;;15.40;99.90;;;;;;7341622;32;20660;-60
2022/11/11 14:15:00;;;;;;;;;;;15.00;99.90;;;;;;7337076;32;20126;-60
2022/11/11 14:19:17;;;;;;;5.60;1.60;;;14.80;99.90;;;;;;7344554;32;20113;-59
2022/11/11 14:23:25;;;;;;;3.20;1.45;;;14.50;99.90;;;;;;7349704;32;20130;-59
2022/11/11 14:27:32;;;;;;;4.10;1.37;;;14.20;99.90;;;;;;7350297;32;20149;-58
2022/11/11 14:32:19;;;;;;;3.87;1.65;;;13.90;99.90;;;;;;7344599;32;20224;-60
2022/11/11 14:36:42;;;;;;;3.87;1.37;;;13.90;99.90;;;;;;7330766;32;20122;-64
2022/11/11 14:40:44;;;;;;;3.58;1.37;;;13.70;99.90;;;;;;7343904;32;20222;-61
2022/11/11 14:44:45;;;;;;;3.15;1.40;;;13.60;99.90;;;;;;7342049;32;20217;-61
2022/11/11 14:48:56;;;;;;;5.05;1.33;;;13.50;99.90;;;;;;7352381;32;20131;-60
2022/11/11 14:53:14;;;;;;;2.30;1.25;;;13.40;99.90;;;;;;7349259;32;20107;-60
2022/11/11 14:57:20;;;;;;;;;;;13.20;99.90;;;;;;7350340;32;20107;-60
2022/11/11 15:01:22;;;;;;;4.75;3.10;;;13.10;99.90;;;;;;7358514;32;20013;-64
2022/11/11 15:05:58;;;;;;;4.20;2.70;;;13.00;99.90;;;;;;7356824;32;20718;-60
2022/11/11 15:10:27;;;;;;;4.28;1.70;;;12.80;99.90;;;;;;7355398;32;20577;-60
2022/11/11 15:14:53;;;;;;;4.82;1.98;;;12.60;99.90;;;;;;7353438;32;20125;-61
2022/11/11 15:19:29;;;;;;;3.53;1.65;;;12.40;99.90;;;;;;7353008;32;20114;-59
2022/11/11 15:23:58;;;;;;;4.60;1.45;;;12.20;99.90;;;;;;7355623;32;20580;-60
2022/11/11 15:28:31;;;;;;;3.40;1.48;;;12.00;99.90;;;;;;7352482;32;20103;-61
2022/11/11 15:32:47;;;;;;;5.87;1.80;;;11.70;99.90;;;;;;7355887;32;20107;-60
2022/11/11 15:36:49;;;;;;;7.00;1.60;;;11.60;99.90;;;;;;7352125;32;20545;-61
2022/11/11 15:40:59;;;;;;;7.22;2.15;;;11.40;99.90;;;;;;7350433;32;20212;-62
2022/11/11 15:45:03;;;;;;;3.05;1.77;;;11.20;99.90;;;;;;7357173;32;20122;-62
2022/11/11 15:49:12;;;;;;;5.40;2.10;;;11.00;99.90;;;;;;7349882;32;20117;-60
2022/11/11 15:53:20;;;;;;;4.75;2.08;;;10.70;99.90;;;;;;7354195;32;20198;-60
2022/11/11 15:57:31;;;;;;;3.45;1.50;;;10.50;99.90;;;;;;7349340;32;20200;-59
2022/11/11 16:01:33;;;;;;;10.68;7.03;;;10.20;99.90;;;;;;7332929;32;20237;-59
2022/11/11 16:05:35;;;;;;;6.12;2.50;;;10.10;99.90;;;;;;7343752;32;20103;-59
2022/11/11 16:09:37;;;;;;;3.90;1.83;;;9.80;99.90;;;;;;7327713;32;20123;-58
2022/11/11 16:13:44;;;;;;;4.12;1.45;;;9.60;99.90;;;;;;7325761;32;20232;-58
2022/11/11 16:17:45;;;;;;;;;;;9.40;99.90;;;;;;7320886;32;20182;-58
2022/11/11 16:22:03;;;;;;;5.53;1.48;;;9.30;99.90;;;;;;7324734;32;20121;-58
2022/11/11 16:26:06;;;;;;;5.75;1.87;;;9.10;99.90;;;;;;7324762;32;20098;-58
2022/11/11 16:30:29;;;;;;;6.18;2.10;;;9.00;99.90;;;;;;7325059;32;20863;-58
2022/11/11 16:34:36;;;;;;;4.50;2.12;;;8.80;99.90;;;;;;7327985;32;20209;-59
2022/11/11 16:38:38;;;;;;;2.70;1.90;;;8.60;99.90;;;;;;7330411;32;20099;-58
2022/11/11 16:42:40;;;;;;;3.90;2.08;;;8.50;99.90;;;;;;7325216;32;21259;-58
2022/11/11 16:46:42;;;;;;;8.00;2.17;;;8.40;99.90;;;;;;7319141;32;20547;-60
2022/11/11 16:50:57;;;;;;;6.25;1.80;;;8.30;99.90;;;;;;7321954;32;20244;-58
2022/11/11 16:54:59;;;;;;;5.35;1.80;;;8.20;99.90;;;;;;7325355;32;20531;-58
2022/11/11 16:59:29;;;;;;;3.60;1.70;;;8.00;99.90;;;;;;7330359;32;20205;-58
2022/11/11 17:03:30;;;;;;;5.80;1.75;;;7.90;99.90;;;;;;7323200;32;20217;-59
2022/11/11 17:07:34;;;;;;;6.03;1.70;;;7.80;99.90;;;;;;7310602;32;20237;-58
2022/11/11 17:11:39;;;;;;;4.22;1.33;;;7.70;99.90;;;;;;7315131;32;20212;-58
2022/11/11 17:15:40;;;;;;;4.93;1.52;;;7.60;99.90;;;;;;7321472;32;20125;-58
2022/11/11 17:19:42;;;;;;;3.87;1.62;;;7.50;99.90;;;;;;7326956;32;20700;-58
2022/11/11 17:23:44;;;;;;;15.27;8.52;;;7.40;99.90;;;;;;7311725;32;20256;-60
2022/11/11 17:27:46;;;;;;;4.93;2.50;;;7.30;99.90;;;;;;7305916;32;20229;-60
2022/11/11 17:31:48;;;;;;;6.68;2.60;;;7.30;99.90;;;;;;7314900;32;20194;-59
2022/11/11 17:35:50;;;;;;;5.37;2.58;;;7.20;99.90;;;;;;7316145;32;20831;-59
2022/11/11 17:39:52;;;;;;;5.10;3.00;;;7.10;99.90;;;;;;7326513;32;20214;-59
2022/11/11 17:43:54;;;;;;;26.65;14.20;;;7.20;99.90;;;;;;7324753;32;20249;-59
2022/11/11 17:47:55;;;;;;;46.13;22.55;;;7.10;99.90;;;;;;7326191;32;20215;-59
2022/11/11 17:51:57;;;;;;;24.40;12.40;;;7.10;99.90;;;;;;7331862;32;20130;-59
2022/11/11 17:56:00;;;;;;;8.85;4.70;;;7.00;99.90;;;;;;7324319;32;20229;-59
2022/11/11 18:00:02;;;;;;;17.27;10.93;;;6.90;99.90;;;;;;7324299;32;20204;-59
2022/11/11 18:04:05;;;;;;;8.70;3.42;;;6.90;99.90;;;;;;7326036;32;20225;-59
2022/11/11 18:08:06;;;;;;;7.32;3.03;;;7.00;99.90;;;;;;7323563;32;20223;-59
2022/11/11 18:12:08;;;;;;;8.65;3.35;;;7.00;99.90;;;;;;7325013;32;20114;-59
2022/11/11 18:16:15;;;;;;;5.62;2.80;;;7.00;99.90;;;;;;7328237;32;20516;-62
2022/11/11 18:20:17;;;;;;;5.90;2.95;;;7.10;99.90;;;;;;7321423;32;20125;-56
2022/11/11 18:24:19;;;;;;;7.87;2.72;;;7.00;99.90;;;;;;7309375;32;21938;-58
2022/11/11 18:28:20;;;;;;;7.43;3.78;;;7.00;99.90;;;;;;7313089;32;20210;-60
2022/11/11 18:32:22;;;;;;;14.20;8.75;;;7.10;99.90;;;;;;7315407;32;20261;-60
2022/11/11 18:36:24;;;;;;;11.00;6.72;;;7.10;99.90;;;;;;7316082;32;20247;-58
2022/11/11 18:40:27;;;;;;;8.00;5.10;;;7.30;99.90;;;;;;7313624;32;20154;-59
2022/11/11 18:44:28;;;;;;;8.15;4.53;;;7.30;99.90;;;;;;7317131;32;20225;-60
2022/11/11 18:48:30;;;;;;;5.15;2.90;;;7.50;99.90;;;;;;7318649;32;20126;-60
2022/11/11 18:52:32;;;;;;;16.60;10.30;;;7.60;99.90;;;;;;7352038;32;20191;-60
2022/11/11 18:56:36;;;;;;;6.70;3.17;;;7.70;99.90;;;;;;7335883;32;20189;-59
2022/11/11 19:00:38;;;;;;;3.53;1.87;;;7.80;99.90;;;;;;7337055;32;20096;-59
2022/11/11 19:04:40;;;;;;;3.70;2.20;;;8.00;99.90;;;;;;7339541;32;20103;-60
2022/11/11 19:08:42;;;;;;;8.88;4.20;;;8.20;99.90;;;;;;7346815;32;20099;-59
2022/11/11 19:12:46;;;;;;;4.50;2.33;;;8.30;99.90;;;;;;7341772;32;20115;-59
2022/11/11 19:16:47;;;;;;;6.45;2.90;;;8.40;99.90;;;;;;7353493;32;20174;-59
2022/11/11 19:20:49;;;;;;;3.53;2.20;;;8.50;99.90;;;;;;7350711;32;20226;-59
2022/11/11 19:24:51;;;;;;;6.90;2.97;;;8.60;99.90;;;;;;7339584;32;20123;-60
2022/11/11 19:28:53;;;;;;;6.12;2.20;;;8.70;99.90;;;;;;7343345;32;20202;-60
2022/11/11 19:32:55;;;;;;;4.95;1.95;;;8.80;99.90;;;;;;7347429;32;20124;-60
2022/11/11 19:36:57;;;;;;;4.28;1.62;;;8.90;99.90;;;;;;7348199;32;20210;-61
2022/11/11 19:41:08;;;;;;;3.70;2.05;;;9.10;99.90;;;;;;7348957;32;20129;-60
2022/11/11 19:45:10;;;;;;;3.58;1.48;;;9.20;99.90;;;;;;7353652;32;20208;-60
2022/11/11 19:49:12;;;;;;;2.78;1.60;;;9.20;99.90;;;;;;7350292;32;20145;-60
2022/11/11 19:53:13;;;;;;;3.97;1.58;;;9.40;99.90;;;;;;7351765;32;20130;-60
2022/11/11 19:57:15;;;;;;;3.00;1.25;;;9.40;99.90;;;;;;7354069;32;20117;-59
2022/11/11 20:01:21;;;;;;;4.43;1.70;;;9.50;99.90;;;;;;7351064;32;20559;-60
2022/11/11 20:05:23;;;;;;;3.87;1.60;;;9.50;99.90;;;;;;7353000;32;20198;-61
2022/11/11 20:09:25;;;;;;;3.25;1.15;;;9.50;99.90;;;;;;7355301;32;20094;-60
2022/11/11 20:13:26;;;;;;;5.32;1.70;;;9.40;99.90;;;;;;7353978;32;20252;-61
2022/11/11 20:17:28;;;;;;;6.55;3.28;;;9.30;99.90;;;;;;7347246;32;20103;-60
2022/11/11 20:21:30;;;;;;;3.15;1.65;;;9.30;99.90;;;;;;7347537;32;20100;-62
2022/11/11 20:25:36;;;;;;;4.10;1.85;;;9.30;99.90;;;;;;7350125;32;20117;-61
2022/11/11 20:29:38;;;;;;;4.62;1.50;;;9.20;99.90;;;;;;7348570;32;20514;-61
2022/11/11 20:33:40;;;;;;;2.87;1.50;;;9.10;99.90;;;;;;7351580;32;20237;-62
2022/11/11 20:37:42;;;;;;;5.93;2.15;;;9.00;99.90;;;;;;7348378;32;20209;-60
2022/11/11 20:41:43;;;;;;;4.93;2.20;;;9.00;99.90;;;;;;7348408;32;20229;-60
2022/11/11 20:45:45;;;;;;;5.80;2.03;;;9.00;99.90;;;;;;7350556;32;20129;-60
2022/11/11 20:49:47;;;;;;;5.12;1.67;;;8.90;99.90;;;;;;7353860;32;20126;-61
2022/11/11 20:53:53;;;;;;;3.80;2.10;;;8.80;99.90;;;;;;7355491;32;20099;-60
2022/11/11 20:57:54;;;;;;;4.93;1.90;;;8.50;99.90;;;;;;7349660;32;20133;-60
2022/11/11 21:01:56;;;;;;;4.65;2.10;;;8.30;99.90;;;;;;7339124;32;20099;-59
2022/11/11 21:06:06;;;;;;;4.85;1.77;;;8.10;99.90;;;;;;7343045;32;20824;-59
2022/11/11 21:10:08;;;;;;;4.18;2.12;;;7.90;99.90;;;;;;7351674;32;20182;-58
2022/11/11 21:14:09;;;;;;;8.48;2.78;;;7.70;99.90;;;;;;7349196;32;20145;-60
2022/11/11 21:18:11;;;;;;;8.70;3.83;;;7.60;99.90;;;;;;7352112;32;20204;-60
2022/11/11 21:22:13;;;;;;;13.73;5.70;;;7.50;99.90;;;;;;7350086;32;20208;-60
2022/11/11 21:26:18;;;;;;;10.07;5.03;;;7.20;99.90;;;;;;7348869;32;20216;-59
2022/11/11 21:30:20;;;;;;;5.22;2.60;;;7.10;99.90;;;;;;7340177;32;20111;-60
2022/11/11 21:34:21;;;;;;;5.03;2.78;;;6.90;99.90;;;;;;7347024;32;20099;-59
2022/11/11 21:38:23;;;;;;;6.55;2.75;;;6.90;99.90;;;;;;7348833;32;20210;-60
2022/11/11 21:42:25;;;;;;;5.62;2.62;;;6.90;99.90;;;;;;7349585;32;20211;-61
2022/11/11 21:46:30;;;;;;;4.40;2.78;;;6.90;99.90;;;;;;7349620;32;20947;-60
2022/11/11 21:50:32;;;;;;;7.12;3.10;;;7.20;99.90;;;;;;7344840;32;20130;-61
2022/11/11 21:54:33;;;;;;;6.20;2.70;;;7.30;99.90;;;;;;7348561;32;20250;-61
2022/11/11 21:58:35;;;;;;;6.25;2.90;;;7.50;99.90;;;;;;7343263;32;20104;-60
2022/11/11 22:02:37;;;;;;;6.70;2.70;;;7.50;99.90;;;;;;7345913;32;20210;-63
2022/11/11 22:06:39;;;;;;;6.00;2.70;;;7.50;99.90;;;;;;7351301;32;20146;-61
2022/11/11 22:10:41;;;;;;;8.40;3.17;;;7.40;99.90;;;;;;7347068;32;20568;-61
2022/11/11 22:14:42;;;;;;;6.62;2.90;;;7.30;99.90;;;;;;7346167;32;20603;-60
2022/11/11 22:18:45;;;;;;;7.40;2.95;;;7.40;99.90;;;;;;7349886;32;20138;-60
2022/11/11 22:22:46;;;;;;;3.67;2.72;;;7.40;99.90;;;;;;7347842;32;20530;-60
2022/11/11 22:26:49;;;;;;;5.78;2.90;;;7.60;99.90;;;;;;7353551;32;20174;-60
2022/11/11 22:30:50;;;;;;;6.15;2.80;;;7.70;99.90;;;;;;7348710;32;20297;-60
2022/11/11 22:34:52;;;;;;;5.85;2.70;;;7.70;99.90;;;;;;7344822;32;20223;-62
2022/11/11 22:38:54;;;;;;;6.60;2.87;;;7.70;99.90;;;;;;7346294;32;20198;-60
2022/11/11 22:42:56;;;;;;;4.60;2.72;;;7.80;99.90;;;;;;7351615;32;20222;-60